Rechercher aéroport 
image banner adimage banner adimage banner ad
image banner ad

CL31 - Caltrans District 7

Situé à Los Angeles, United States

ICAO - CL31, IATA -

Données fournies par Airmate  

Information générale

Coordonnées: N34°3'5" W118°14'34"
Élévation : 484 feet MSL.
Variation magnétique : 14° East
Voir autres Aéroports à California

Données opérationnelles

Special qualification required
Heure actuelle UTC:
Heure actuelle locale:
METAR: KHHR 020453Z AUTO 24004KT 10SM CLR 19/14 A3002 RMK AO2 SLP164 T01940139
Voir NOTAMs / SUP AIP / TFR affectant cet aéroport [VIEW]
Fréquences de communication: [VIEW]

Pistes:

Coordonnées de l'aéroport

Adresse: Los Angeles United States

Vue satellite de CL31